createdAt,value
2023-02-22T00:02:19.427Z,2.54
2023-02-22T00:04:46.265Z,2.75
2023-02-22T00:07:14.419Z,2.72
2023-02-22T00:09:41.346Z,2.66
2023-02-22T00:12:09.157Z,2.64
2023-02-22T00:14:35.965Z,2.59
2023-02-22T00:17:02.714Z,2.49
2023-02-22T00:19:29.471Z,2.53
2023-02-22T00:21:56.629Z,2.42
2023-02-22T00:24:24.763Z,2.38
2023-02-22T00:26:52.526Z,2.34
2023-02-22T00:29:19.269Z,2.32
2023-02-22T00:31:46.088Z,2.37
2023-02-22T00:34:14.448Z,2.37
2023-02-22T00:36:45.401Z,2.21
2023-02-22T00:39:12.169Z,2.16
2023-02-22T00:41:40.310Z,2.38
2023-02-22T00:44:07.137Z,2.41
2023-02-22T00:46:34.046Z,2.35
2023-02-22T00:49:00.878Z,2.24
2023-02-22T00:51:27.856Z,2.18
2023-02-22T00:53:54.565Z,2.15
2023-02-22T00:56:21.307Z,2.04
2023-02-22T00:58:49.403Z,2.03
2023-02-22T01:01:16.741Z,2.14
2023-02-22T01:03:43.725Z,2.20
2023-02-22T01:06:10.554Z,2.18
2023-02-22T01:08:37.355Z,2.22
2023-02-22T01:11:04.306Z,2.17
2023-02-22T01:13:31.047Z,2.13
2023-02-22T01:15:59.183Z,2.13
2023-02-22T01:18:26.277Z,2.14
2023-02-22T01:20:53.041Z,2.10
2023-02-22T01:23:19.963Z,2.05
2023-02-22T01:25:46.740Z,2.19
2023-02-22T01:28:13.472Z,2.38
2023-02-22T01:30:40.327Z,2.42
2023-02-22T01:33:09.385Z,2.38
2023-02-22T01:35:38.070Z,2.28
2023-02-22T01:38:04.869Z,2.11
2023-02-22T01:40:33.747Z,2.06
2023-02-22T01:43:04.154Z,2.04
2023-02-22T01:45:49.005Z,2.03
2023-02-22T01:48:22.393Z,1.97
2023-02-22T01:50:52.209Z,1.93
2023-02-22T01:53:20.572Z,1.92
2023-02-22T01:55:48.113Z,1.92
2023-02-22T01:58:18.593Z,1.92
2023-02-22T02:00:45.341Z,1.90
2023-02-22T02:03:15.413Z,1.87
2023-02-22T02:05:44.308Z,1.85
2023-02-22T02:08:21.592Z,1.87
2023-02-22T02:10:48.925Z,1.86
2023-02-22T02:13:16.327Z,1.82
2023-02-22T02:15:43.285Z,1.83
2023-02-22T02:18:12.464Z,1.89
2023-02-22T02:20:50.036Z,1.88
2023-02-22T02:23:38.786Z,1.79
2023-02-22T02:26:27.509Z,1.60
2023-02-22T02:29:24.369Z,1.77
2023-02-22T02:32:15.636Z,1.78
2023-02-22T02:34:49.554Z,1.64
2023-02-22T02:37:27.930Z,1.60
2023-02-22T02:40:05.085Z,1.60
2023-02-22T02:42:38.092Z,1.70
2023-02-22T02:45:09.603Z,1.82
2023-02-22T02:47:42.279Z,1.87
2023-02-22T02:50:11.779Z,1.94
2023-02-22T02:52:41.035Z,1.97
2023-02-22T02:55:09.664Z,1.92
2023-02-22T02:57:36.459Z,1.81
2023-02-22T03:00:03.536Z,1.85
2023-02-22T03:02:44.632Z,1.86
2023-02-22T03:05:39.809Z,1.79
2023-02-22T03:08:15.888Z,1.75
2023-02-22T03:10:49.013Z,1.72
2023-02-22T03:13:25.354Z,1.69
2023-02-22T03:15:58.015Z,1.68
2023-02-22T03:18:33.269Z,1.65
2023-02-22T03:21:06.766Z,1.62
2023-02-22T03:23:41.597Z,1.56
2023-02-22T03:26:13.249Z,1.51
2023-02-22T03:28:43.010Z,1.52
2023-02-22T03:31:14.269Z,1.51
2023-02-22T03:33:46.292Z,1.53
2023-02-22T03:36:19.741Z,1.51
2023-02-22T03:38:49.306Z,1.50
2023-02-22T03:41:19.577Z,1.55
2023-02-22T03:43:50.482Z,1.49
2023-02-22T03:46:18.008Z,1.50
2023-02-22T03:48:53.880Z,1.45
2023-02-22T03:51:21.677Z,1.45
2023-02-22T03:53:48.683Z,1.43
2023-02-22T03:56:21.826Z,1.39
2023-02-22T03:58:49.981Z,1.34
2023-02-22T04:01:17.282Z,1.46
2023-02-22T04:03:44.257Z,1.45
2023-02-22T04:06:12.438Z,1.41
2023-02-22T04:08:39.239Z,1.49
2023-02-22T04:11:06.095Z,1.69
2023-02-22T04:13:32.982Z,1.64
2023-02-22T04:15:59.799Z,1.60
2023-02-22T04:18:26.645Z,1.56
2023-02-22T04:20:53.449Z,1.49
2023-02-22T04:23:21.718Z,1.36
2023-02-22T04:25:48.531Z,1.29
2023-02-22T04:28:15.281Z,1.18
2023-02-22T04:30:42.070Z,1.15
2023-02-22T04:33:08.875Z,1.21
2023-02-22T04:35:35.753Z,1.25
2023-02-22T04:38:02.497Z,1.23
2023-02-22T04:40:30.896Z,1.26
2023-02-22T04:42:57.778Z,1.28
2023-02-22T04:45:24.746Z,1.26
2023-02-22T04:47:51.549Z,1.28
2023-02-22T04:50:18.990Z,1.32
2023-02-22T04:52:45.755Z,1.28
2023-02-22T04:55:12.832Z,1.24
2023-02-22T04:57:40.930Z,1.24
2023-02-22T05:00:09.133Z,1.22
2023-02-22T05:02:35.925Z,1.13
2023-02-22T05:05:02.811Z,1.11
2023-02-22T05:07:29.589Z,1.08
2023-02-22T05:09:56.480Z,1.24
2023-02-22T05:12:23.249Z,1.33
2023-02-22T05:14:51.385Z,1.32
2023-02-22T05:17:18.304Z,1.33
2023-02-22T05:19:45.154Z,1.37
2023-02-22T05:22:11.990Z,1.37
2023-02-22T05:24:38.838Z,1.34
2023-02-22T05:27:05.676Z,1.30
2023-02-22T05:29:32.411Z,1.24
2023-02-22T05:32:00.672Z,1.18
2023-02-22T05:34:27.455Z,1.09
2023-02-22T05:36:54.250Z,0.97
2023-02-22T05:39:20.985Z,1.04
2023-02-22T05:41:47.851Z,1.09
2023-02-22T05:44:15.145Z,1.15
2023-02-22T05:46:42.109Z,1.21
2023-02-22T05:49:11.468Z,1.23
2023-02-22T05:51:39.325Z,1.22
2023-02-22T05:54:06.180Z,1.22
2023-02-22T05:56:33.427Z,1.14
2023-02-22T05:59:00.568Z,1.16
2023-02-22T06:01:28.050Z,1.19
2023-02-22T06:03:54.944Z,1.19
2023-02-22T06:06:23.085Z,1.07
2023-02-22T06:08:50.537Z,1.04
2023-02-22T06:11:17.671Z,1.00
2023-02-22T06:13:49.576Z,1.00
2023-02-22T06:16:16.562Z,0.96
2023-02-22T06:18:43.375Z,0.89
2023-02-22T06:21:10.236Z,0.89
2023-02-22T06:23:38.335Z,1.10
2023-02-22T06:26:05.748Z,1.17
2023-02-22T06:28:32.647Z,1.21
2023-02-22T06:31:00.151Z,1.19
2023-02-22T06:33:26.923Z,1.15
2023-02-22T06:35:54.209Z,1.17
2023-02-22T06:38:21.642Z,1.05
2023-02-22T06:40:50.020Z,0.95
2023-02-22T06:43:17.854Z,0.87
2023-02-22T06:45:45.193Z,1.05
2023-02-22T06:48:12.144Z,1.17
2023-02-22T06:50:39.194Z,1.19
2023-02-22T06:53:06.052Z,1.20
2023-02-22T06:55:34.542Z,1.24
2023-02-22T06:58:05.262Z,1.34
2023-02-22T07:00:32.974Z,1.35
2023-02-22T07:03:01.336Z,1.36
2023-02-22T07:05:29.209Z,1.34
2023-02-22T07:08:03.352Z,1.36
2023-02-22T07:10:32.566Z,1.45
2023-02-22T07:13:00.662Z,1.47
2023-02-22T07:15:31.544Z,1.49
2023-02-22T07:17:59.227Z,1.54
2023-02-22T07:20:28.044Z,1.52
2023-02-22T07:22:55.925Z,1.55
2023-02-22T07:25:24.371Z,1.59
2023-02-22T07:27:51.983Z,1.84
2023-02-22T07:30:21.530Z,2.10
2023-02-22T07:32:50.302Z,2.36
2023-02-22T07:35:19.414Z,2.59
2023-02-22T07:37:46.580Z,2.82
2023-02-22T07:40:14.957Z,2.97
2023-02-22T07:42:57.880Z,3.14
2023-02-22T07:45:27.214Z,3.27
2023-02-22T07:47:56.957Z,3.49
2023-02-22T07:50:29.079Z,3.74
2023-02-22T07:52:57.941Z,4.00
2023-02-22T07:55:26.339Z,4.30
2023-02-22T07:57:55.815Z,4.57
2023-02-22T08:00:24.896Z,4.76
2023-02-22T08:02:52.516Z,4.99
2023-02-22T08:05:25.847Z,5.20
2023-02-22T08:07:52.965Z,5.37
2023-02-22T08:10:21.971Z,5.48
2023-02-22T08:12:49.811Z,5.63
2023-02-22T08:15:19.073Z,5.81
2023-02-22T08:17:45.883Z,6.04
2023-02-22T08:20:13.168Z,6.21
2023-02-22T08:22:43.391Z,6.35
2023-02-22T08:25:11.171Z,6.48
2023-02-22T08:27:38.151Z,6.62
2023-02-22T08:30:06.354Z,6.78
2023-02-22T08:32:34.476Z,6.97
2023-02-22T08:35:02.539Z,7.18
2023-02-22T08:37:29.609Z,7.33
2023-02-22T08:39:58.005Z,7.45
2023-02-22T08:42:25.606Z,7.52
2023-02-22T08:44:52.365Z,7.61
2023-02-22T08:47:19.484Z,7.67
2023-02-22T08:49:46.313Z,7.74
2023-02-22T08:52:13.164Z,7.83
2023-02-22T08:54:40.766Z,7.91
2023-02-22T08:57:09.436Z,7.96
2023-02-22T08:59:36.505Z,8.10
2023-02-22T09:02:03.785Z,8.21
2023-02-22T09:04:32.543Z,8.30
2023-02-22T09:06:59.478Z,8.40
2023-02-22T09:09:26.304Z,8.47
2023-02-22T09:11:53.388Z,8.58
2023-02-22T09:14:21.939Z,8.65
2023-02-22T09:16:48.887Z,8.79
2023-02-22T09:19:16.122Z,8.91
2023-02-22T09:21:42.893Z,9.05
2023-02-22T09:24:09.727Z,9.11
2023-02-22T09:26:38.171Z,9.21
2023-02-22T09:29:07.267Z,9.35
2023-02-22T09:31:37.250Z,9.42
2023-02-22T09:34:07.653Z,9.52
2023-02-22T09:36:34.430Z,9.57
2023-02-22T09:39:01.269Z,9.67
2023-02-22T09:41:36.421Z,9.61
2023-02-22T09:44:16.048Z,9.52
2023-02-22T09:46:47.959Z,9.44
2023-02-22T09:49:21.294Z,9.40
2023-02-22T09:51:52.673Z,9.42
2023-02-22T09:54:23.628Z,9.43
2023-02-22T09:56:55.578Z,9.30
2023-02-22T09:59:25.432Z,9.25
2023-02-22T10:02:02.744Z,9.30
2023-02-22T10:04:41.013Z,9.42
2023-02-22T10:07:16.856Z,9.60
2023-02-22T10:09:44.988Z,9.81
2023-02-22T10:12:23.021Z,10.01
2023-02-22T10:15:22.170Z,10.19
2023-02-22T10:18:01.147Z,10.27
2023-02-22T10:20:42.790Z,10.40
2023-02-22T10:23:20.482Z,10.52
2023-02-22T10:25:52.150Z,10.60
2023-02-22T10:28:23.797Z,10.68
2023-02-22T10:30:53.630Z,10.66
2023-02-22T10:33:23.992Z,10.59
2023-02-22T10:35:52.576Z,10.57
2023-02-22T10:38:21.042Z,10.62
2023-02-22T10:40:53.063Z,10.68
2023-02-22T10:43:22.461Z,10.78
2023-02-22T10:45:53.424Z,10.76
2023-02-22T10:48:24.989Z,10.84
2023-02-22T10:50:54.838Z,10.95
2023-02-22T10:53:21.988Z,10.96
2023-02-22T10:56:11.917Z,11.09
2023-02-22T10:58:49.193Z,11.24
2023-02-22T11:01:26.697Z,11.29
2023-02-22T11:04:13.728Z,11.36
2023-02-22T11:06:42.668Z,11.40
2023-02-22T11:09:13.280Z,11.57
2023-02-22T11:11:42.375Z,11.67
2023-02-22T11:14:10.815Z,11.80
2023-02-22T11:16:40.807Z,11.88
2023-02-22T11:19:18.301Z,12.00
2023-02-22T11:21:45.323Z,12.05
2023-02-22T11:26:45.912Z,12.11
2023-02-22T11:29:20.101Z,12.18
2023-02-22T11:31:47.453Z,12.28
2023-02-22T11:34:39.172Z,12.35
2023-02-22T11:37:28.374Z,12.45
2023-02-22T11:40:07.256Z,12.49
2023-02-22T11:42:34.308Z,12.44
2023-02-22T11:45:13.682Z,12.36
2023-02-22T11:47:50.053Z,12.28
2023-02-22T11:50:23.555Z,12.07
2023-02-22T11:53:05.132Z,11.85
2023-02-22T11:55:43.134Z,11.82
2023-02-22T11:58:28.450Z,11.87
2023-02-22T12:01:02.799Z,12.01
2023-02-22T12:03:50.150Z,12.01
2023-02-22T12:06:30.813Z,11.82
2023-02-22T12:09:07.811Z,11.56
2023-02-22T12:11:44.120Z,11.45
2023-02-22T12:14:21.190Z,11.44
2023-02-22T12:17:17.964Z,11.47
2023-02-22T12:19:48.803Z,11.67
2023-02-22T12:22:20.809Z,11.84
2023-02-22T12:25:00.737Z,11.92
2023-02-22T12:27:39.276Z,11.94
2023-02-22T12:30:13.245Z,11.91
2023-02-22T12:32:43.952Z,12.13
2023-02-22T12:35:16.925Z,12.28
2023-02-22T12:37:54.710Z,12.45
2023-02-22T12:40:26.992Z,12.56
2023-02-22T12:42:59.850Z,12.58
2023-02-22T12:45:34.469Z,12.58
2023-02-22T12:48:16.950Z,12.58
2023-02-22T12:50:47.085Z,12.60
2023-02-22T12:53:21.028Z,12.68
2023-02-22T12:55:51.760Z,12.74
2023-02-22T12:58:23.475Z,12.85
2023-02-22T13:00:56.870Z,12.98
2023-02-22T13:03:35.576Z,13.05
2023-02-22T13:06:26.104Z,13.10
2023-02-22T13:09:11.016Z,13.03
2023-02-22T13:11:45.717Z,12.98
2023-02-22T13:14:32.191Z,12.99
2023-02-22T13:17:05.905Z,13.02
2023-02-22T13:19:43.295Z,13.03
2023-02-22T13:22:15.816Z,13.02
2023-02-22T13:24:55.290Z,12.94
2023-02-22T13:27:26.604Z,12.85
2023-02-22T13:29:58.165Z,12.82
2023-02-22T13:32:41.514Z,12.83
2023-02-22T13:35:22.634Z,12.84
2023-02-22T13:38:22.362Z,12.88
2023-02-22T13:41:08.661Z,12.87
2023-02-22T13:43:55.129Z,12.84
2023-02-22T13:46:56.205Z,12.75
2023-02-22T13:49:53.243Z,12.69
2023-02-22T13:52:23.857Z,12.53
2023-02-22T13:54:53.958Z,12.40
2023-02-22T13:57:24.559Z,12.35
2023-02-22T14:00:19.104Z,12.33
2023-02-22T14:03:04.323Z,12.14
2023-02-22T14:05:53.516Z,12.12
2023-02-22T14:08:41.942Z,12.05
2023-02-22T14:11:50.627Z,11.99
2023-02-22T14:14:18.870Z,11.88
2023-02-22T14:17:20.987Z,11.65
2023-02-22T14:20:02.081Z,11.91
2023-02-22T14:22:30.033Z,12.07
2023-02-22T14:24:58.263Z,12.20
2023-02-22T14:27:25.388Z,12.32
2023-02-22T14:29:56.043Z,12.37
2023-02-22T14:32:31.174Z,12.49
2023-02-22T14:35:00.670Z,12.66
2023-02-22T14:37:31.013Z,12.84
2023-02-22T14:40:01.932Z,13.02
2023-02-22T14:42:32.219Z,13.05
2023-02-22T14:45:10.740Z,13.19
2023-02-22T14:47:41.869Z,13.28
2023-02-22T14:50:15.046Z,13.31
2023-02-22T14:52:44.850Z,13.36
2023-02-22T14:55:21.059Z,13.33
2023-02-22T14:57:58.895Z,13.35
2023-02-22T15:00:39.253Z,13.34
2023-02-22T15:03:06.022Z,13.17
2023-02-22T15:05:40.251Z,13.01
2023-02-22T15:08:07.902Z,12.86
2023-02-22T15:10:41.373Z,12.71
2023-02-22T15:13:17.418Z,12.65
2023-02-22T15:15:49.445Z,12.57
2023-02-22T15:18:24.826Z,12.33
2023-02-22T15:20:55.911Z,12.28
2023-02-22T15:23:26.084Z,12.23
2023-02-22T15:25:53.689Z,12.21
2023-02-22T15:28:23.590Z,12.06
2023-02-22T15:30:52.119Z,11.96
2023-02-22T15:33:20.883Z,11.89
2023-02-22T15:35:54.213Z,11.78
2023-02-22T15:38:28.507Z,11.67
2023-02-22T15:41:00.443Z,11.50
2023-02-22T15:43:27.249Z,11.43
2023-02-22T15:45:56.159Z,11.45
2023-02-22T15:48:23.398Z,11.30
2023-02-22T15:51:05.667Z,11.23
2023-02-22T15:53:40.231Z,11.08
2023-02-22T15:56:12.095Z,11.10
2023-02-22T15:58:39.486Z,11.08
2023-02-22T16:01:09.868Z,10.93
2023-02-22T16:03:40.125Z,10.72
2023-02-22T16:06:10.972Z,10.64
2023-02-22T16:08:54.399Z,10.50
2023-02-22T16:11:24.863Z,10.21
2023-02-22T16:13:53.601Z,9.99
2023-02-22T16:16:29.417Z,9.69
2023-02-22T16:19:22.287Z,9.35
2023-02-22T16:21:53.984Z,9.14
2023-02-22T16:24:27.750Z,8.80
2023-02-22T16:27:18.518Z,8.49
2023-02-22T16:30:00.368Z,8.13
2023-02-22T16:32:28.504Z,8.04
2023-02-22T16:34:55.386Z,7.95
2023-02-22T16:37:23.111Z,7.80
2023-02-22T16:39:50.668Z,7.62
2023-02-22T16:42:18.281Z,7.50
2023-02-22T16:44:45.054Z,7.37
2023-02-22T16:47:12.413Z,7.26
2023-02-22T16:49:40.521Z,7.15
2023-02-22T16:52:07.997Z,6.93
2023-02-22T16:54:41.338Z,6.87
2023-02-22T16:57:15.337Z,6.79
2023-02-22T16:59:42.133Z,6.70
2023-02-22T17:02:13.017Z,6.58
2023-02-22T17:04:41.905Z,6.43
2023-02-22T17:07:08.659Z,6.38
2023-02-22T17:09:35.439Z,6.12
2023-02-22T17:12:02.495Z,6.25
2023-02-22T17:14:33.633Z,6.28
2023-02-22T17:17:00.557Z,6.33
2023-02-22T17:19:27.345Z,6.42
2023-02-22T17:21:55.538Z,6.40
2023-02-22T17:24:23.837Z,6.42
2023-02-22T17:26:51.509Z,6.46
2023-02-22T17:29:18.312Z,6.28
2023-02-22T17:31:45.406Z,6.19
2023-02-22T17:34:12.301Z,6.15
2023-02-22T17:36:39.035Z,6.13
2023-02-22T17:39:07.209Z,6.10
2023-02-22T17:41:33.971Z,6.06
2023-02-22T17:44:00.693Z,6.01
2023-02-22T17:46:27.533Z,5.94
2023-02-22T17:48:54.312Z,5.88
2023-02-22T17:51:22.389Z,5.85
2023-02-22T17:53:49.134Z,5.86
2023-02-22T17:56:19.264Z,5.88
2023-02-22T17:58:47.204Z,5.81
2023-02-22T18:01:22.442Z,5.78
2023-02-22T18:03:49.444Z,5.60
2023-02-22T18:06:17.597Z,5.48
2023-02-22T18:08:44.530Z,5.47
2023-02-22T18:11:11.284Z,5.45
2023-02-22T18:13:39.465Z,5.39
2023-02-22T18:16:06.839Z,5.24
2023-02-22T18:18:33.742Z,5.22
2023-02-22T18:21:00.610Z,5.37
2023-02-22T18:23:29.375Z,5.32
2023-02-22T18:26:09.533Z,5.18
2023-02-22T18:28:36.926Z,4.95
2023-02-22T18:31:08.868Z,4.97
2023-02-22T18:33:35.696Z,4.86
2023-02-22T18:36:02.467Z,4.93
2023-02-22T18:38:29.252Z,5.01
2023-02-22T18:41:00.352Z,4.85
2023-02-22T18:43:27.575Z,4.89
2023-02-22T18:45:54.414Z,4.86
2023-02-22T18:48:22.520Z,4.86
2023-02-22T18:50:51.401Z,4.87
2023-02-22T18:53:18.179Z,4.88
2023-02-22T18:55:45.015Z,4.79
2023-02-22T18:58:13.872Z,4.76
2023-02-22T19:00:40.757Z,4.76
2023-02-22T19:03:07.565Z,4.62
2023-02-22T19:05:36.378Z,4.42
2023-02-22T19:08:06.351Z,4.42
2023-02-22T19:10:36.673Z,4.29
2023-02-22T19:13:06.590Z,4.37
2023-02-22T19:15:33.753Z,4.44
2023-02-22T19:18:00.616Z,4.52
2023-02-22T19:20:27.425Z,4.49
2023-02-22T19:22:55.606Z,4.47
2023-02-22T19:25:22.419Z,4.20
2023-02-22T19:27:49.166Z,4.26
2023-02-22T19:30:16.055Z,4.21
2023-02-22T19:32:42.881Z,4.18
2023-02-22T19:35:11.591Z,4.14
2023-02-22T19:37:38.917Z,4.16
2023-02-22T19:40:08.120Z,4.14
2023-02-22T19:42:35.101Z,4.13
2023-02-22T19:45:01.850Z,4.10
2023-02-22T19:47:28.591Z,4.07
2023-02-22T19:49:56.594Z,3.93
2023-02-22T19:52:25.139Z,3.96
2023-02-22T19:54:51.889Z,3.89
2023-02-22T19:57:20.014Z,3.83
2023-02-22T19:59:46.990Z,3.83
2023-02-22T20:02:13.772Z,3.74
2023-02-22T20:04:40.646Z,3.79
2023-02-22T20:07:07.510Z,3.76
2023-02-22T20:09:34.277Z,3.75
2023-02-22T20:12:01.025Z,3.65
2023-02-22T20:14:29.190Z,3.63
2023-02-22T20:16:57.400Z,3.51
2023-02-22T20:19:25.076Z,3.54
2023-02-22T20:21:52.455Z,3.56
2023-02-22T20:24:19.432Z,3.57
2023-02-22T20:26:46.942Z,3.51
2023-02-22T20:29:14.481Z,3.46
2023-02-22T20:31:43.430Z,3.45
2023-02-22T20:34:11.009Z,3.42
2023-02-22T20:36:39.463Z,3.44
2023-02-22T20:39:08.155Z,3.41
2023-02-22T20:41:35.901Z,3.43
2023-02-22T20:44:03.593Z,3.34
2023-02-22T20:46:31.616Z,3.30
2023-02-22T20:49:01.546Z,3.17
2023-02-22T20:51:29.285Z,3.14
2023-02-22T20:53:57.638Z,3.05
2023-02-22T20:56:24.488Z,3.00
2023-02-22T20:58:51.957Z,2.91
2023-02-22T21:01:20.671Z,2.84
2023-02-22T21:03:47.716Z,2.79
2023-02-22T21:06:17.526Z,2.75
2023-02-22T21:08:49.081Z,2.69
2023-02-22T21:11:17.925Z,2.77
2023-02-22T21:13:44.822Z,2.79
2023-02-22T21:16:18.208Z,2.78
2023-02-22T21:18:44.990Z,2.86
2023-02-22T21:21:11.767Z,2.94
2023-02-22T21:23:40.806Z,2.99
2023-02-22T21:26:13.293Z,2.88
2023-02-22T21:28:50.831Z,3.01
2023-02-22T21:31:20.068Z,3.03
2023-02-22T21:33:49.219Z,2.94
2023-02-22T21:36:16.098Z,2.80
2023-02-22T21:38:45.839Z,2.63
2023-02-22T21:41:12.991Z,2.24
2023-02-22T21:43:39.804Z,2.53
2023-02-22T21:46:08.077Z,2.71
2023-02-22T21:48:34.969Z,2.73
2023-02-22T21:51:08.571Z,2.70
2023-02-22T21:53:35.450Z,2.68
2023-02-22T21:56:05.234Z,2.65
2023-02-22T21:58:31.968Z,2.62
2023-02-22T22:01:04.568Z,2.57
2023-02-22T22:03:31.701Z,2.61
2023-02-22T22:05:58.557Z,2.54
2023-02-22T22:08:25.412Z,2.42
2023-02-22T22:10:52.571Z,2.41
2023-02-22T22:13:20.724Z,2.49
2023-02-22T22:15:47.485Z,2.49
2023-02-22T22:18:14.569Z,2.53
2023-02-22T22:20:41.367Z,2.56
2023-02-22T22:23:08.158Z,2.58
2023-02-22T22:25:34.980Z,2.60
2023-02-22T22:28:01.739Z,2.58
2023-02-22T22:30:29.874Z,2.58
2023-02-22T22:32:56.603Z,2.49
2023-02-22T22:35:23.322Z,2.38
2023-02-22T22:37:50.141Z,2.35
2023-02-22T22:40:17.972Z,2.31
2023-02-22T22:42:45.891Z,2.41
2023-02-22T22:45:13.172Z,2.50
2023-02-22T22:47:41.372Z,2.61
2023-02-22T22:50:09.490Z,2.57
2023-02-22T22:52:36.285Z,2.54
2023-02-22T22:55:03.175Z,2.50
2023-02-22T22:57:29.925Z,2.41
2023-02-22T22:59:56.733Z,2.36
2023-02-22T23:02:23.480Z,2.33
2023-02-22T23:04:51.867Z,2.18
2023-02-22T23:07:18.614Z,2.16
2023-02-22T23:09:45.434Z,2.09
2023-02-22T23:12:12.170Z,2.06
2023-02-22T23:14:40.718Z,2.05
2023-02-22T23:17:07.466Z,2.06
2023-02-22T23:19:36.554Z,2.18
2023-02-22T23:22:05.623Z,2.13
2023-02-22T23:24:34.312Z,2.09
2023-02-22T23:27:01.132Z,2.09
2023-02-22T23:29:28.643Z,2.03
2023-02-22T23:31:55.453Z,1.99
2023-02-22T23:34:23.233Z,1.94
2023-02-22T23:36:50.366Z,1.83
2023-02-22T23:39:19.832Z,1.82
2023-02-22T23:41:49.962Z,1.82
2023-02-22T23:44:16.710Z,1.73
2023-02-22T23:46:43.934Z,1.76
2023-02-22T23:49:11.271Z,1.68
2023-02-22T23:51:38.928Z,1.55
2023-02-22T23:54:06.907Z,1.54
2023-02-22T23:56:35.802Z,1.51
2023-02-22T23:59:04.074Z,1.49
